sensor_id;sensor_type;location;lat;lon;timestamp;temperature;humidity
79065;DHT22;68469;51.502;7.462;2023-09-18T00:00:23;21.00;99.90
79065;DHT22;68469;51.502;7.462;2023-09-18T00:02:48;21.00;99.90
79065;DHT22;68469;51.502;7.462;2023-09-18T00:05:14;21.10;99.90
79065;DHT22;68469;51.502;7.462;2023-09-18T00:07:44;21.20;99.90
79065;DHT22;68469;51.502;7.462;2023-09-18T00:10:10;21.20;99.90
79065;DHT22;68469;51.502;7.462;2023-09-18T00:12:37;21.20;99.90
79065;DHT22;68469;51.502;7.462;2023-09-18T00:15:03;21.20;99.90
79065;DHT22;68469;51.502;7.462;2023-09-18T00:17:29;21.30;99.90
79065;DHT22;68469;51.502;7.462;2023-09-18T00:19:55;21.30;99.90
79065;DHT22;68469;51.502;7.462;2023-09-18T00:22:20;21.30;99.90
79065;DHT22;68469;51.502;7.462;2023-09-18T00:24:47;21.30;99.90
79065;DHT22;68469;51.502;7.462;2023-09-18T00:27:13;21.30;99.90
79065;DHT22;68469;51.502;7.462;2023-09-18T00:29:39;21.30;99.90
79065;DHT22;68469;51.502;7.462;2023-09-18T00:32:05;21.30;99.90
79065;DHT22;68469;51.502;7.462;2023-09-18T00:34:31;21.30;99.90
79065;DHT22;68469;51.502;7.462;2023-09-18T00:36:59;21.30;99.90
79065;DHT22;68469;51.502;7.462;2023-09-18T00:39:26;21.30;99.90
79065;DHT22;68469;51.502;7.462;2023-09-18T00:41:51;21.30;99.90
79065;DHT22;68469;51.502;7.462;2023-09-18T00:44:20;21.30;99.90
79065;DHT22;68469;51.502;7.462;2023-09-18T00:46:47;21.30;99.90
79065;DHT22;68469;51.502;7.462;2023-09-18T00:49:13;21.30;99.90
79065;DHT22;68469;51.502;7.462;2023-09-18T00:51:39;21.30;99.90
79065;DHT22;68469;51.502;7.462;2023-09-18T00:54:06;21.30;99.90
79065;DHT22;68469;51.502;7.462;2023-09-18T00:56:33;21.20;99.90
79065;DHT22;68469;51.502;7.462;2023-09-18T00:59:00;21.20;99.90
79065;DHT22;68469;51.502;7.462;2023-09-18T01:01:27;21.10;99.90
79065;DHT22;68469;51.502;7.462;2023-09-18T01:03:52;21.10;99.90
79065;DHT22;68469;51.502;7.462;2023-09-18T01:06:19;21.10;99.90
79065;DHT22;68469;51.502;7.462;2023-09-18T01:08:46;21.10;99.90
79065;DHT22;68469;51.502;7.462;2023-09-18T01:11:41;21.00;99.90
79065;DHT22;68469;51.502;7.462;2023-09-18T01:16:41;20.90;99.90
79065;DHT22;68469;51.502;7.462;2023-09-18T01:19:11;20.90;99.90
79065;DHT22;68469;51.502;7.462;2023-09-18T01:21:36;20.90;99.90
79065;DHT22;68469;51.502;7.462;2023-09-18T01:24:02;21.00;99.90
79065;DHT22;68469;51.502;7.462;2023-09-18T01:26:28;21.00;99.90
79065;DHT22;68469;51.502;7.462;2023-09-18T01:28:54;21.00;99.90
79065;DHT22;68469;51.502;7.462;2023-09-18T01:31:19;21.00;99.90
79065;DHT22;68469;51.502;7.462;2023-09-18T01:33:47;21.00;99.90
79065;DHT22;68469;51.502;7.462;2023-09-18T01:36:14;21.00;99.90
79065;DHT22;68469;51.502;7.462;2023-09-18T01:38:42;21.00;99.90
79065;DHT22;68469;51.502;7.462;2023-09-18T01:41:08;21.00;99.90
79065;DHT22;68469;51.502;7.462;2023-09-18T01:43:34;20.90;99.90
79065;DHT22;68469;51.502;7.462;2023-09-18T01:46:00;20.90;99.90
79065;DHT22;68469;51.502;7.462;2023-09-18T01:48:26;20.90;99.90
79065;DHT22;68469;51.502;7.462;2023-09-18T01:50:52;20.90;99.90
79065;DHT22;68469;51.502;7.462;2023-09-18T01:53:17;20.90;99.90
79065;DHT22;68469;51.502;7.462;2023-09-18T01:55:43;20.90;99.90
79065;DHT22;68469;51.502;7.462;2023-09-18T01:58:09;20.90;99.90
79065;DHT22;68469;51.502;7.462;2023-09-18T02:00:35;20.90;99.90
79065;DHT22;68469;51.502;7.462;2023-09-18T02:03:00;20.90;99.90
79065;DHT22;68469;51.502;7.462;2023-09-18T02:05:26;20.90;99.90
79065;DHT22;68469;51.502;7.462;2023-09-18T02:07:51;20.90;99.90
79065;DHT22;68469;51.502;7.462;2023-09-18T02:10:17;20.90;99.90
79065;DHT22;68469;51.502;7.462;2023-09-18T02:12:43;20.90;99.90
79065;DHT22;68469;51.502;7.462;2023-09-18T02:15:08;21.00;99.90
79065;DHT22;68469;51.502;7.462;2023-09-18T02:17:36;21.00;99.90
79065;DHT22;68469;51.502;7.462;2023-09-18T02:20:03;20.90;99.90
79065;DHT22;68469;51.502;7.462;2023-09-18T02:22:32;21.00;99.90
79065;DHT22;68469;51.502;7.462;2023-09-18T02:24:58;21.00;99.90
79065;DHT22;68469;51.502;7.462;2023-09-18T02:27:23;21.00;99.90
79065;DHT22;68469;51.502;7.462;2023-09-18T02:29:49;21.00;99.90
79065;DHT22;68469;51.502;7.462;2023-09-18T02:32:16;21.00;99.90
79065;DHT22;68469;51.502;7.462;2023-09-18T02:34:41;21.10;99.90
79065;DHT22;68469;51.502;7.462;2023-09-18T02:37:07;21.10;99.90
79065;DHT22;68469;51.502;7.462;2023-09-18T02:39:32;21.10;99.90
79065;DHT22;68469;51.502;7.462;2023-09-18T02:41:58;21.10;99.90
79065;DHT22;68469;51.502;7.462;2023-09-18T02:44:24;21.10;99.90
79065;DHT22;68469;51.502;7.462;2023-09-18T02:46:49;21.10;99.90
79065;DHT22;68469;51.502;7.462;2023-09-18T02:49:15;21.10;99.90
79065;DHT22;68469;51.502;7.462;2023-09-18T02:51:40;21.10;99.90
79065;DHT22;68469;51.502;7.462;2023-09-18T02:54:06;21.10;99.90
79065;DHT22;68469;51.502;7.462;2023-09-18T02:56:31;21.10;99.90
79065;DHT22;68469;51.502;7.462;2023-09-18T02:58:57;21.10;99.90
79065;DHT22;68469;51.502;7.462;2023-09-18T03:01:23;21.10;99.90
79065;DHT22;68469;51.502;7.462;2023-09-18T03:03:48;21.20;99.90
79065;DHT22;68469;51.502;7.462;2023-09-18T03:06:14;21.10;99.90
79065;DHT22;68469;51.502;7.462;2023-09-18T03:08:39;21.10;99.90
79065;DHT22;68469;51.502;7.462;2023-09-18T03:11:12;21.10;99.90
79065;DHT22;68469;51.502;7.462;2023-09-18T03:13:43;21.20;99.90
79065;DHT22;68469;51.502;7.462;2023-09-18T03:16:11;21.20;99.90
79065;DHT22;68469;51.502;7.462;2023-09-18T03:18:37;21.20;99.90
79065;DHT22;68469;51.502;7.462;2023-09-18T03:21:02;21.20;99.90
79065;DHT22;68469;51.502;7.462;2023-09-18T03:23:28;21.20;99.90
79065;DHT22;68469;51.502;7.462;2023-09-18T03:25:54;21.30;99.90
79065;DHT22;68469;51.502;7.462;2023-09-18T03:28:19;21.40;98.90
79065;DHT22;68469;51.502;7.462;2023-09-18T03:30:45;21.40;98.70
79065;DHT22;68469;51.502;7.462;2023-09-18T03:33:10;21.50;98.60
79065;DHT22;68469;51.502;7.462;2023-09-18T03:35:50;21.50;98.10
79065;DHT22;68469;51.502;7.462;2023-09-18T03:38:16;21.60;97.90
79065;DHT22;68469;51.502;7.462;2023-09-18T03:40:42;21.70;97.70
79065;DHT22;68469;51.502;7.462;2023-09-18T03:43:09;21.70;97.80
79065;DHT22;68469;51.502;7.462;2023-09-18T03:45:35;21.70;97.90
79065;DHT22;68469;51.502;7.462;2023-09-18T03:48:01;21.70;97.50
79065;DHT22;68469;51.502;7.462;2023-09-18T03:50:26;21.70;97.60
79065;DHT22;68469;51.502;7.462;2023-09-18T03:52:52;21.70;97.50
79065;DHT22;68469;51.502;7.462;2023-09-18T03:55:18;21.70;97.60
79065;DHT22;68469;51.502;7.462;2023-09-18T03:57:44;21.70;97.70
79065;DHT22;68469;51.502;7.462;2023-09-18T04:00:11;21.70;97.90
79065;DHT22;68469;51.502;7.462;2023-09-18T04:02:38;21.70;98.10
79065;DHT22;68469;51.502;7.462;2023-09-18T04:05:03;21.70;98.20
79065;DHT22;68469;51.502;7.462;2023-09-18T04:07:30;21.70;98.10
79065;DHT22;68469;51.502;7.462;2023-09-18T04:09:56;21.70;97.90
79065;DHT22;68469;51.502;7.462;2023-09-18T04:12:22;21.70;97.80
79065;DHT22;68469;51.502;7.462;2023-09-18T04:14:47;21.70;97.70
79065;DHT22;68469;51.502;7.462;2023-09-18T04:17:13;21.70;98.00
79065;DHT22;68469;51.502;7.462;2023-09-18T04:19:39;21.70;98.40
79065;DHT22;68469;51.502;7.462;2023-09-18T04:22:04;21.70;98.40
79065;DHT22;68469;51.502;7.462;2023-09-18T04:24:30;21.60;98.50
79065;DHT22;68469;51.502;7.462;2023-09-18T04:26:56;21.70;98.30
79065;DHT22;68469;51.502;7.462;2023-09-18T04:29:21;21.60;98.50
79065;DHT22;68469;51.502;7.462;2023-09-18T04:31:47;21.60;98.50
79065;DHT22;68469;51.502;7.462;2023-09-18T04:34:13;21.60;98.30
79065;DHT22;68469;51.502;7.462;2023-09-18T04:36:39;21.70;98.50
79065;DHT22;68469;51.502;7.462;2023-09-18T04:39:05;21.60;98.40
79065;DHT22;68469;51.502;7.462;2023-09-18T04:41:32;21.60;98.20
79065;DHT22;68469;51.502;7.462;2023-09-18T04:44:00;21.70;98.80
79065;DHT22;68469;51.502;7.462;2023-09-18T04:46:26;21.60;99.50
79065;DHT22;68469;51.502;7.462;2023-09-18T04:48:52;21.60;99.90
79065;DHT22;68469;51.502;7.462;2023-09-18T04:51:17;21.50;99.90
79065;DHT22;68469;51.502;7.462;2023-09-18T04:53:43;21.50;99.90
79065;DHT22;68469;51.502;7.462;2023-09-18T04:56:09;21.40;99.90
79065;DHT22;68469;51.502;7.462;2023-09-18T04:58:36;21.40;99.70
79065;DHT22;68469;51.502;7.462;2023-09-18T05:01:03;21.40;99.90
79065;DHT22;68469;51.502;7.462;2023-09-18T05:03:33;21.40;99.70
79065;DHT22;68469;51.502;7.462;2023-09-18T05:05:59;21.30;99.90
79065;DHT22;68469;51.502;7.462;2023-09-18T05:08:25;21.40;99.90
79065;DHT22;68469;51.502;7.462;2023-09-18T05:10:50;21.40;99.60
79065;DHT22;68469;51.502;7.462;2023-09-18T05:13:16;21.40;99.60
79065;DHT22;68469;51.502;7.462;2023-09-18T05:15:41;21.40;99.60
79065;DHT22;68469;51.502;7.462;2023-09-18T05:18:07;21.40;99.90
79065;DHT22;68469;51.502;7.462;2023-09-18T05:20:34;21.50;99.70
79065;DHT22;68469;51.502;7.462;2023-09-18T05:23:00;21.50;99.90
79065;DHT22;68469;51.502;7.462;2023-09-18T05:25:28;21.50;99.90
79065;DHT22;68469;51.502;7.462;2023-09-18T05:27:57;21.40;99.90
79065;DHT22;68469;51.502;7.462;2023-09-18T05:30:28;21.40;99.90
79065;DHT22;68469;51.502;7.462;2023-09-18T05:32:55;21.40;99.90
79065;DHT22;68469;51.502;7.462;2023-09-18T05:35:21;21.30;99.90
79065;DHT22;68469;51.502;7.462;2023-09-18T05:37:48;21.30;99.90
79065;DHT22;68469;51.502;7.462;2023-09-18T05:40:14;21.30;99.90
79065;DHT22;68469;51.502;7.462;2023-09-18T05:42:41;21.30;99.90
79065;DHT22;68469;51.502;7.462;2023-09-18T05:45:12;21.30;99.90
79065;DHT22;68469;51.502;7.462;2023-09-18T05:47:38;21.30;99.90
79065;DHT22;68469;51.502;7.462;2023-09-18T05:50:05;21.30;99.90
79065;DHT22;68469;51.502;7.462;2023-09-18T05:52:32;21.30;99.90
79065;DHT22;68469;51.502;7.462;2023-09-18T05:54:58;21.30;99.90
79065;DHT22;68469;51.502;7.462;2023-09-18T05:57:24;21.30;99.90
79065;DHT22;68469;51.502;7.462;2023-09-18T05:59:49;21.30;99.90
79065;DHT22;68469;51.502;7.462;2023-09-18T06:02:15;21.30;99.90
79065;DHT22;68469;51.502;7.462;2023-09-18T06:04:42;21.30;99.90
79065;DHT22;68469;51.502;7.462;2023-09-18T06:07:08;21.40;99.90
79065;DHT22;68469;51.502;7.462;2023-09-18T06:09:34;21.40;99.90
79065;DHT22;68469;51.502;7.462;2023-09-18T06:12:00;21.40;99.90
79065;DHT22;68469;51.502;7.462;2023-09-18T06:14:26;21.40;99.90
79065;DHT22;68469;51.502;7.462;2023-09-18T06:16:51;21.50;99.90
79065;DHT22;68469;51.502;7.462;2023-09-18T06:19:17;21.50;99.90
79065;DHT22;68469;51.502;7.462;2023-09-18T06:21:44;21.50;99.90
79065;DHT22;68469;51.502;7.462;2023-09-18T06:24:09;21.50;99.90
79065;DHT22;68469;51.502;7.462;2023-09-18T06:26:35;21.50;99.90
79065;DHT22;68469;51.502;7.462;2023-09-18T06:29:01;21.50;99.90
79065;DHT22;68469;51.502;7.462;2023-09-18T06:31:27;21.50;99.90
79065;DHT22;68469;51.502;7.462;2023-09-18T06:33:53;21.50;99.90
79065;DHT22;68469;51.502;7.462;2023-09-18T06:36:19;21.50;99.90
79065;DHT22;68469;51.502;7.462;2023-09-18T06:38:45;21.40;99.90
79065;DHT22;68469;51.502;7.462;2023-09-18T06:41:10;21.50;99.90
79065;DHT22;68469;51.502;7.462;2023-09-18T06:43:36;21.40;99.90
79065;DHT22;68469;51.502;7.462;2023-09-18T06:46:01;21.40;99.90
79065;DHT22;68469;51.502;7.462;2023-09-18T06:48:27;21.40;99.90
79065;DHT22;68469;51.502;7.462;2023-09-18T06:50:58;21.50;99.90
79065;DHT22;68469;51.502;7.462;2023-09-18T06:53:23;21.50;99.90
79065;DHT22;68469;51.502;7.462;2023-09-18T06:55:49;21.50;99.90
79065;DHT22;68469;51.502;7.462;2023-09-18T06:58:14;21.50;99.90
79065;DHT22;68469;51.502;7.462;2023-09-18T07:00:40;21.50;99.90
79065;DHT22;68469;51.502;7.462;2023-09-18T07:03:06;21.60;99.90
79065;DHT22;68469;51.502;7.462;2023-09-18T07:05:31;21.60;99.90
79065;DHT22;68469;51.502;7.462;2023-09-18T07:07:57;21.60;99.90
79065;DHT22;68469;51.502;7.462;2023-09-18T07:10:22;21.60;99.90
79065;DHT22;68469;51.502;7.462;2023-09-18T07:12:49;21.70;99.90
79065;DHT22;68469;51.502;7.462;2023-09-18T07:15:14;21.80;99.90
79065;DHT22;68469;51.502;7.462;2023-09-18T07:17:40;21.80;99.90
79065;DHT22;68469;51.502;7.462;2023-09-18T07:20:06;21.90;99.90
79065;DHT22;68469;51.502;7.462;2023-09-18T07:22:35;21.80;99.40
79065;DHT22;68469;51.502;7.462;2023-09-18T07:25:01;21.90;99.40
79065;DHT22;68469;51.502;7.462;2023-09-18T07:27:26;21.90;99.20
79065;DHT22;68469;51.502;7.462;2023-09-18T07:29:55;22.00;99.40
79065;DHT22;68469;51.502;7.462;2023-09-18T07:32:20;22.00;99.20
79065;DHT22;68469;51.502;7.462;2023-09-18T07:34:46;22.10;98.80
79065;DHT22;68469;51.502;7.462;2023-09-18T07:37:12;22.20;98.70
79065;DHT22;68469;51.502;7.462;2023-09-18T07:39:38;22.20;98.40
79065;DHT22;68469;51.502;7.462;2023-09-18T07:42:07;22.30;98.40
79065;DHT22;68469;51.502;7.462;2023-09-18T07:44:33;22.40;98.00
79065;DHT22;68469;51.502;7.462;2023-09-18T07:46:59;22.40;97.70
79065;DHT22;68469;51.502;7.462;2023-09-18T07:49:26;22.50;97.90
79065;DHT22;68469;51.502;7.462;2023-09-18T07:51:52;22.50;97.70
79065;DHT22;68469;51.502;7.462;2023-09-18T07:54:17;22.60;97.20
79065;DHT22;68469;51.502;7.462;2023-09-18T07:56:43;22.70;97.40
79065;DHT22;68469;51.502;7.462;2023-09-18T07:59:08;22.70;97.20
79065;DHT22;68469;51.502;7.462;2023-09-18T08:01:35;22.80;97.40
79065;DHT22;68469;51.502;7.462;2023-09-18T08:04:01;22.80;96.80
79065;DHT22;68469;51.502;7.462;2023-09-18T08:06:26;22.90;96.40
79065;DHT22;68469;51.502;7.462;2023-09-18T08:08:53;22.90;95.80
79065;DHT22;68469;51.502;7.462;2023-09-18T08:11:19;23.00;95.60
79065;DHT22;68469;51.502;7.462;2023-09-18T08:13:44;23.00;95.50
79065;DHT22;68469;51.502;7.462;2023-09-18T08:16:10;22.90;95.50
79065;DHT22;68469;51.502;7.462;2023-09-18T08:18:36;23.00;95.50
79065;DHT22;68469;51.502;7.462;2023-09-18T08:21:04;23.10;95.30
79065;DHT22;68469;51.502;7.462;2023-09-18T08:23:30;23.20;94.60
79065;DHT22;68469;51.502;7.462;2023-09-18T08:25:56;23.20;94.40
79065;DHT22;68469;51.502;7.462;2023-09-18T08:28:23;23.10;94.20
79065;DHT22;68469;51.502;7.462;2023-09-18T08:30:49;23.20;94.50
79065;DHT22;68469;51.502;7.462;2023-09-18T08:33:14;23.20;94.00
79065;DHT22;68469;51.502;7.462;2023-09-18T08:35:40;23.20;93.90
79065;DHT22;68469;51.502;7.462;2023-09-18T08:38:06;23.20;93.70
79065;DHT22;68469;51.502;7.462;2023-09-18T08:40:33;23.20;93.50
79065;DHT22;68469;51.502;7.462;2023-09-18T08:42:59;23.20;93.30
79065;DHT22;68469;51.502;7.462;2023-09-18T08:45:51;23.10;93.40
79065;DHT22;68469;51.502;7.462;2023-09-18T08:48:17;23.00;93.50
79065;DHT22;68469;51.502;7.462;2023-09-18T08:50:45;22.90;93.30
79065;DHT22;68469;51.502;7.462;2023-09-18T08:53:11;22.90;93.30
79065;DHT22;68469;51.502;7.462;2023-09-18T08:55:37;22.80;93.70
79065;DHT22;68469;51.502;7.462;2023-09-18T08:58:02;22.80;94.10
79065;DHT22;68469;51.502;7.462;2023-09-18T09:00:28;22.80;94.30
79065;DHT22;68469;51.502;7.462;2023-09-18T09:02:54;22.90;94.60
79065;DHT22;68469;51.502;7.462;2023-09-18T09:05:23;23.00;94.50
79065;DHT22;68469;51.502;7.462;2023-09-18T09:07:50;23.00;94.10
79065;DHT22;68469;51.502;7.462;2023-09-18T09:10:16;23.00;93.20
79065;DHT22;68469;51.502;7.462;2023-09-18T09:12:58;23.00;93.40
79065;DHT22;68469;51.502;7.462;2023-09-18T09:15:31;23.10;93.40
79065;DHT22;68469;51.502;7.462;2023-09-18T09:18:08;23.10;92.90
79065;DHT22;68469;51.502;7.462;2023-09-18T09:20:35;23.20;92.80
79065;DHT22;68469;51.502;7.462;2023-09-18T09:23:04;23.40;92.10
79065;DHT22;68469;51.502;7.462;2023-09-18T09:25:32;23.50;91.90
79065;DHT22;68469;51.502;7.462;2023-09-18T09:28:00;23.80;91.70
79065;DHT22;68469;51.502;7.462;2023-09-18T09:30:27;24.10;91.00
79065;DHT22;68469;51.502;7.462;2023-09-18T09:32:55;24.40;90.20
79065;DHT22;68469;51.502;7.462;2023-09-18T09:35:29;24.50;88.20
79065;DHT22;68469;51.502;7.462;2023-09-18T09:38:09;24.70;87.90
79065;DHT22;68469;51.502;7.462;2023-09-18T09:40:41;24.90;85.80
79065;DHT22;68469;51.502;7.462;2023-09-18T09:43:09;25.20;84.70
79065;DHT22;68469;51.502;7.462;2023-09-18T09:45:35;25.40;84.10
79065;DHT22;68469;51.502;7.462;2023-09-18T09:48:01;25.30;82.60
79065;DHT22;68469;51.502;7.462;2023-09-18T09:50:27;25.40;83.30
79065;DHT22;68469;51.502;7.462;2023-09-18T09:52:54;25.30;81.10
79065;DHT22;68469;51.502;7.462;2023-09-18T09:55:24;25.30;81.40
79065;DHT22;68469;51.502;7.462;2023-09-18T09:57:55;25.40;81.60
79065;DHT22;68469;51.502;7.462;2023-09-18T10:00:35;25.40;81.00
79065;DHT22;68469;51.502;7.462;2023-09-18T10:03:10;25.40;81.00
79065;DHT22;68469;51.502;7.462;2023-09-18T10:05:40;25.50;80.00
79065;DHT22;68469;51.502;7.462;2023-09-18T10:08:12;25.30;80.10
79065;DHT22;68469;51.502;7.462;2023-09-18T10:10:40;25.40;78.40
79065;DHT22;68469;51.502;7.462;2023-09-18T10:13:46;25.30;78.40
79065;DHT22;68469;51.502;7.462;2023-09-18T10:16:12;25.20;78.70
79065;DHT22;68469;51.502;7.462;2023-09-18T10:24:27;24.90;78.70
79065;DHT22;68469;51.502;7.462;2023-09-18T10:26:57;25.00;78.20
79065;DHT22;68469;51.502;7.462;2023-09-18T10:29:27;25.00;78.70
79065;DHT22;68469;51.502;7.462;2023-09-18T10:31:54;25.00;78.20
79065;DHT22;68469;51.502;7.462;2023-09-18T10:34:21;25.10;78.60
79065;DHT22;68469;51.502;7.462;2023-09-18T10:36:48;25.20;77.00
79065;DHT22;68469;51.502;7.462;2023-09-18T10:39:14;25.60;77.00
79065;DHT22;68469;51.502;7.462;2023-09-18T10:41:47;26.30;74.70
79065;DHT22;68469;51.502;7.462;2023-09-18T10:44:14;27.40;71.50
79065;DHT22;68469;51.502;7.462;2023-09-18T10:46:42;28.10;67.90
79065;DHT22;68469;51.502;7.462;2023-09-18T10:49:07;28.80;64.30
79065;DHT22;68469;51.502;7.462;2023-09-18T10:51:33;29.20;63.30
79065;DHT22;68469;51.502;7.462;2023-09-18T10:54:00;30.60;59.40
79065;DHT22;68469;51.502;7.462;2023-09-18T10:56:26;31.50;57.40
79065;DHT22;68469;51.502;7.462;2023-09-18T10:58:59;32.70;54.30
79065;DHT22;68469;51.502;7.462;2023-09-18T11:01:27;33.40;51.40
79065;DHT22;68469;51.502;7.462;2023-09-18T11:03:58;34.00;50.20
79065;DHT22;68469;51.502;7.462;2023-09-18T11:06:25;34.20;47.90
79065;DHT22;68469;51.502;7.462;2023-09-18T11:08:59;34.90;48.10
79065;DHT22;68469;51.502;7.462;2023-09-18T11:11:27;36.20;46.00
79065;DHT22;68469;51.502;7.462;2023-09-18T11:13:56;36.70;44.30
79065;DHT22;68469;51.502;7.462;2023-09-18T11:21:25;39.40;39.60
79065;DHT22;68469;51.502;7.462;2023-09-18T11:24:09;40.50;37.20
79065;DHT22;68469;51.502;7.462;2023-09-18T11:26:42;40.90;36.10
79065;DHT22;68469;51.502;7.462;2023-09-18T11:29:12;41.30;35.80
79065;DHT22;68469;51.502;7.462;2023-09-18T11:36:41;43.20;34.40
79065;DHT22;68469;51.502;7.462;2023-09-18T11:39:07;44.00;32.40
79065;DHT22;68469;51.502;7.462;2023-09-18T11:41:35;42.80;32.30
79065;DHT22;68469;51.502;7.462;2023-09-18T11:46:38;43.40;32.60
79065;DHT22;68469;51.502;7.462;2023-09-18T11:49:07;44.20;32.20
79065;DHT22;68469;51.502;7.462;2023-09-18T11:51:36;44.70;32.00
79065;DHT22;68469;51.502;7.462;2023-09-18T11:54:02;44.10;31.20
79065;DHT22;68469;51.502;7.462;2023-09-18T11:56:39;43.50;31.40
79065;DHT22;68469;51.502;7.462;2023-09-18T11:59:05;43.30;32.40
79065;DHT22;68469;51.502;7.462;2023-09-18T12:01:32;43.00;32.30
79065;DHT22;68469;51.502;7.462;2023-09-18T12:04:07;41.20;32.90
79065;DHT22;68469;51.502;7.462;2023-09-18T12:06:39;39.10;35.90
79065;DHT22;68469;51.502;7.462;2023-09-18T12:09:06;37.40;37.90
79065;DHT22;68469;51.502;7.462;2023-09-18T12:11:33;35.90;40.00
79065;DHT22;68469;51.502;7.462;2023-09-18T12:14:07;34.60;41.80
79065;DHT22;68469;51.502;7.462;2023-09-18T12:16:38;33.60;44.60
79065;DHT22;68469;51.502;7.462;2023-09-18T12:19:04;32.70;46.30
79065;DHT22;68469;51.502;7.462;2023-09-18T12:21:32;31.90;46.80
79065;DHT22;68469;51.502;7.462;2023-09-18T12:23:58;31.00;49.30
79065;DHT22;68469;51.502;7.462;2023-09-18T12:26:25;30.30;51.00
79065;DHT22;68469;51.502;7.462;2023-09-18T12:28:51;29.70;52.90
79065;DHT22;68469;51.502;7.462;2023-09-18T12:31:17;29.00;53.80
79065;DHT22;68469;51.502;7.462;2023-09-18T12:33:43;28.80;54.80
79065;DHT22;68469;51.502;7.462;2023-09-18T12:36:09;28.50;55.20
79065;DHT22;68469;51.502;7.462;2023-09-18T12:38:36;28.30;55.20
79065;DHT22;68469;51.502;7.462;2023-09-18T12:41:03;28.10;55.50
79065;DHT22;68469;51.502;7.462;2023-09-18T12:43:40;27.90;56.20
79065;DHT22;68469;51.502;7.462;2023-09-18T12:46:07;27.40;58.00
79065;DHT22;68469;51.502;7.462;2023-09-18T12:48:38;27.10;65.50
79065;DHT22;68469;51.502;7.462;2023-09-18T12:51:05;25.90;99.90
79065;DHT22;68469;51.502;7.462;2023-09-18T12:53:31;24.90;99.90
79065;DHT22;68469;51.502;7.462;2023-09-18T12:56:11;24.00;99.90
79065;DHT22;68469;51.502;7.462;2023-09-18T12:58:38;23.40;99.90
79065;DHT22;68469;51.502;7.462;2023-09-18T13:01:08;23.00;99.90
79065;DHT22;68469;51.502;7.462;2023-09-18T13:03:44;22.70;99.90
79065;DHT22;68469;51.502;7.462;2023-09-18T13:06:11;22.50;99.90
79065;DHT22;68469;51.502;7.462;2023-09-18T13:08:38;22.40;99.90
79065;DHT22;68469;51.502;7.462;2023-09-18T13:11:11;22.30;99.90
79065;DHT22;68469;51.502;7.462;2023-09-18T13:14:06;22.30;99.90
79065;DHT22;68469;51.502;7.462;2023-09-18T13:17:01;22.30;99.90
79065;DHT22;68469;51.502;7.462;2023-09-18T13:26:05;22.30;99.90
79065;DHT22;68469;51.502;7.462;2023-09-18T13:28:32;22.40;99.90
79065;DHT22;68469;51.502;7.462;2023-09-18T13:30:59;22.40;99.90
79065;DHT22;68469;51.502;7.462;2023-09-18T13:33:25;22.40;99.90
79065;DHT22;68469;51.502;7.462;2023-09-18T13:35:51;22.40;99.90
79065;DHT22;68469;51.502;7.462;2023-09-18T13:38:18;22.40;99.90
79065;DHT22;68469;51.502;7.462;2023-09-18T13:40:46;22.30;99.90
79065;DHT22;68469;51.502;7.462;2023-09-18T13:43:13;22.30;99.90
79065;DHT22;68469;51.502;7.462;2023-09-18T13:45:44;22.30;99.90
79065;DHT22;68469;51.502;7.462;2023-09-18T13:48:09;22.30;99.90
79065;DHT22;68469;51.502;7.462;2023-09-18T13:50:37;22.20;99.90
79065;DHT22;68469;51.502;7.462;2023-09-18T13:53:03;22.20;99.90
79065;DHT22;68469;51.502;7.462;2023-09-18T13:55:33;22.20;99.90
79065;DHT22;68469;51.502;7.462;2023-09-18T13:57:58;22.20;99.90
79065;DHT22;68469;51.502;7.462;2023-09-18T14:00:24;22.20;99.90
79065;DHT22;68469;51.502;7.462;2023-09-18T14:02:51;22.20;99.90
79065;DHT22;68469;51.502;7.462;2023-09-18T14:05:17;22.30;99.90
79065;DHT22;68469;51.502;7.462;2023-09-18T14:07:43;22.40;99.90
79065;DHT22;68469;51.502;7.462;2023-09-18T14:10:09;22.40;99.90
79065;DHT22;68469;51.502;7.462;2023-09-18T14:12:37;22.40;99.90
79065;DHT22;68469;51.502;7.462;2023-09-18T14:15:06;22.40;99.90
79065;DHT22;68469;51.502;7.462;2023-09-18T14:17:33;22.30;99.90
79065;DHT22;68469;51.502;7.462;2023-09-18T14:19:59;22.20;99.90
79065;DHT22;68469;51.502;7.462;2023-09-18T14:22:25;22.10;99.90
79065;DHT22;68469;51.502;7.462;2023-09-18T14:24:51;22.10;99.90
79065;DHT22;68469;51.502;7.462;2023-09-18T14:27:17;22.10;99.90
79065;DHT22;68469;51.502;7.462;2023-09-18T14:29:42;22.10;99.90
79065;DHT22;68469;51.502;7.462;2023-09-18T14:32:08;22.10;99.90
79065;DHT22;68469;51.502;7.462;2023-09-18T14:34:35;22.10;99.90
79065;DHT22;68469;51.502;7.462;2023-09-18T14:37:03;22.20;99.90
79065;DHT22;68469;51.502;7.462;2023-09-18T14:39:33;22.20;97.80
79065;DHT22;68469;51.502;7.462;2023-09-18T14:41:59;22.20;98.80
79065;DHT22;68469;51.502;7.462;2023-09-18T14:44:25;22.30;95.70
79065;DHT22;68469;51.502;7.462;2023-09-18T14:46:53;22.20;95.90
79065;DHT22;68469;51.502;7.462;2023-09-18T14:49:19;22.20;93.40
79065;DHT22;68469;51.502;7.462;2023-09-18T14:51:45;22.20;95.30
79065;DHT22;68469;51.502;7.462;2023-09-18T14:54:11;22.30;98.10
79065;DHT22;68469;51.502;7.462;2023-09-18T14:56:36;22.30;99.90
79065;DHT22;68469;51.502;7.462;2023-09-18T14:59:20;22.30;93.60
79065;DHT22;68469;51.502;7.462;2023-09-18T15:01:46;22.30;90.50
79065;DHT22;68469;51.502;7.462;2023-09-18T15:04:13;22.30;89.60
79065;DHT22;68469;51.502;7.462;2023-09-18T15:06:38;22.30;89.20
79065;DHT22;68469;51.502;7.462;2023-09-18T15:09:04;22.30;91.80
79065;DHT22;68469;51.502;7.462;2023-09-18T15:11:30;22.30;94.90
79065;DHT22;68469;51.502;7.462;2023-09-18T15:13:56;22.40;92.20
79065;DHT22;68469;51.502;7.462;2023-09-18T15:16:21;22.40;90.10
79065;DHT22;68469;51.502;7.462;2023-09-18T15:18:47;22.50;89.10
79065;DHT22;68469;51.502;7.462;2023-09-18T15:21:14;22.60;90.30
79065;DHT22;68469;51.502;7.462;2023-09-18T15:23:40;22.60;85.20
79065;DHT22;68469;51.502;7.462;2023-09-18T15:26:05;22.50;86.80
79065;DHT22;68469;51.502;7.462;2023-09-18T15:28:32;22.50;86.50
79065;DHT22;68469;51.502;7.462;2023-09-18T15:30:59;22.50;88.30
79065;DHT22;68469;51.502;7.462;2023-09-18T15:33:25;22.40;89.70
79065;DHT22;68469;51.502;7.462;2023-09-18T15:35:51;22.40;85.70
79065;DHT22;68469;51.502;7.462;2023-09-18T15:38:18;22.30;87.60
79065;DHT22;68469;51.502;7.462;2023-09-18T15:40:44;22.30;90.60
79065;DHT22;68469;51.502;7.462;2023-09-18T15:43:09;22.30;91.80
79065;DHT22;68469;51.502;7.462;2023-09-18T15:45:35;22.40;81.20
79065;DHT22;68469;51.502;7.462;2023-09-18T15:48:03;22.40;83.60
79065;DHT22;68469;51.502;7.462;2023-09-18T15:50:30;22.40;82.10
79065;DHT22;68469;51.502;7.462;2023-09-18T15:52:56;22.40;85.20
79065;DHT22;68469;51.502;7.462;2023-09-18T15:55:22;22.40;82.90
79065;DHT22;68469;51.502;7.462;2023-09-18T15:57:49;22.40;84.80